Data for 03/05/2007

Time Sea-Level Adjusted Pressure Absolute Pressure Temperature Relative Humidity Dew Point   
(mb) (inHg) (mb) (inHg) (C) (F) (%) (C) (F)
00:05 1024 30.24 854 25.22 1 33.7 59 -6.2 20.8
00:10 1024 30.24 853 25.19 0.8 33.5 59 -6.3 20.7
00:15 1024 30.24 853 25.19 0.6 33.2 60 -6.3 20.7
00:20 1024 30.24 853 25.19 0.5 33 61 -6.1 21.1
00:25 1024 30.24 853 25.19 0.2 32.4 62 -6.3 20.7
00:30 1024 30.24 853 25.19 0.4 32.7 60 -6.5 20.3
00:35 1024 30.24 853 25.19 0.6 33.1 60 -6.4 20.5
00:40 1024 30.24 853 25.19 0.3 32.5 61 -6.3 20.6
00:45 1024 30.24 853 25.19 0.2 32.3 61 -6.5 20.3
00:50 1024 30.24 853 25.19 0.3 32.6 60 -6.5 20.3
00:55 1024 30.24 853 25.19 0.5 32.8 60 -6.5 20.4
01:00 1024 30.24 853 25.19 -0.4 31.2 68 -5.7 21.8
01:05 1024 30.24 853 25.19 -1.1 30 66 -6.6 20.1
01:10 1024 30.24 853 25.19 -0.6 30.9 65 -6.4 20.5
01:15 1024 30.24 853 25.19 -0.1 31.7 64 -6.1 20.9
01:20 1024 30.24 853 25.19 0 32.1 61 -6.5 20.3
01:25 1024 30.24 853 25.19 0.1 32.1 62 -6.5 20.4
01:30 1024 30.24 853 25.19 -0.4 31.3 63 -6.7 19.9
01:35 1024 30.24 853 25.19 -0.4 31.3 62 -6.8 19.7
01:40 1024 30.24 853 25.19 -0.3 31.5 62 -6.7 19.9
01:45 1024 30.24 853 25.19 -0.3 31.4 62 -6.7 19.9
01:50 1024 30.24 853 25.19 -0.1 31.9 60 -6.9 19.5
01:55 1024 30.24 853 25.19 0.3 32.5 59 -6.9 19.6
02:00 1024 30.24 853 25.19 0.5 32.9 59 -6.7 20
02:05 1024 30.24 853 25.19 0.5 32.8 59 -6.5 20.2
02:10 1024 30.24 853 25.19 -0.6 31 64 -6.6 20.1
02:15 1024 30.24 853 25.19 -1.7 29 68 -6.9 19.6
02:20 1024 30.24 853 25.19 -2.2 28 70 -7 19.3
02:25 1024 30.24 853 25.19 -2.1 28.1 67 -7.5 18.5
02:30 1024 30.24 853 25.19 -1.5 29.4 64 -7.4 18.7
02:35 1024 30.24 853 25.19 -1.3 29.7 64 -7.3 18.9
02:40 1024 30.24 853 25.19 -1 30.3 62 -7.4 18.7
02:45 1024 30.24 853 25.19 -0.3 31.5 60 -7.2 19.1
02:50 1024 30.24 853 25.19 -0.4 31.2 60 -7.2 19.1
02:55 1024 30.24 853 25.19 -0.4 31.3 59 -7.3 18.8
03:00 1024 30.24 853 25.19 -0.4 31.3 60 -7.2 19
03:05 1024 30.24 853 25.19 -0.3 31.5 59 -7.3 18.8
03:10 1024 30.24 853 25.19 0 32 59 -7.1 19.1
03:15 1024 30.24 853 25.19 0.1 32.1 58 -7.3 18.9
03:20 1024 30.24 853 25.19 -0.2 31.6 60 -7.1 19.3
03:25 1024 30.24 853 25.19 -0.5 31.1 60 -7.4 18.7
03:30 1024 30.24 853 25.19 -0.9 30.5 62 -7.2 19
03:35 1024 30.24 853 25.19 -1 30.2 63 -7.3 18.9
03:40 1024 30.24 853 25.19 -1.6 29.1 65 -7.3 18.8
03:45 1024 30.24 853 25.19 -0.9 30.4 62 -7.3 18.8
03:50 1024 30.24 853 25.19 -0.8 30.6 61 -7.5 18.5
03:55 1024 30.24 853 25.19 -0.6 30.9 61 -7.3 18.8
04:00 1024 30.24 853 25.19 -0.7 30.8 61 -7.3 18.8
04:05 1024 30.24 853 25.19 -0.3 31.4 60 -7.2 19.1
04:10 1024 30.24 853 25.19 -0.7 30.7 62 -7.2 19.1
04:15 1024 30.24 853 25.19 -0.5 31 60 -7.3 18.9
04:20 1024 30.24 853 25.19 -0.6 31 60 -7.3 18.9
04:25 1023 30.21 853 25.19 -0.9 30.4 62 -7.2 19
04:30 1023 30.21 853 25.19 -1.2 29.9 63 -7.3 18.9
04:35 1023 30.21 853 25.19 -1.6 29.1 65 -7.3 18.8
04:40 1023 30.21 853 25.19 -1.7 29 65 -7.4 18.7
04:45 1023 30.21 853 25.19 -1.6 29.1 65 -7.3 18.8
04:50 1023 30.21 853 25.19 -1 30.1 62 -7.4 18.7
04:55 1023 30.21 853 25.19 -1.3 29.6 65 -7.1 19.2
05:00 1023 30.21 853 25.19 -1 30.2 62 -7.4 18.8
05:05 1023 30.21 852 25.16 -1 30.3 63 -7.2 19
05:10 1023 30.21 853 25.19 -1.2 29.8 63 -7.3 18.8
05:15 1023 30.21 853 25.19 -1.3 29.6 63 -7.4 18.7
05:20 1023 30.21 853 25.19 -1.1 30 62 -7.4 18.7
05:25 1023 30.21 853 25.19 -1 30.3 63 -7.2 19
05:30 1023 30.21 853 25.19 -0.9 30.3 62 -7.3 18.9
05:35 1023 30.21 853 25.19 -1 30.1 63 -7.3 18.9
05:40 1023 30.21 853 25.19 -1.1 30 63 -7.3 18.9
05:45 1023 30.21 853 25.19 -1.3 29.6 64 -7.3 18.8
05:50 1023 30.21 853 25.19 -1.2 29.8 62 -7.5 18.5
05:55 1023 30.21 853 25.19 -0.9 30.4 62 -7.3 18.8
06:00 1023 30.21 853 25.19 -0.8 30.6 61 -7.4 18.7
06:05 1023 30.21 853 25.19 -0.8 30.5 61 -7.4 18.7
06:10 1024 30.24 853 25.19 -1 30.1 62 -7.4 18.7
06:15 1024 30.24 853 25.19 -1.4 29.5 64 -7.4 18.6
06:20 1024 30.24 853 25.19 -1.7 28.9 64 -7.6 18.3
06:25 1024 30.24 853 25.19 -2.1 28.3 66 -7.6 18.3
06:30 1024 30.24 853 25.19 -2.4 27.7 66 -7.8 18
06:35 1024 30.24 853 25.19 -2.8 27 68 -7.8 17.9
06:40 1024 30.24 853 25.19 -3.1 26.4 70 -7.9 17.8
06:45 1024 30.24 853 25.19 -2.9 26.8 68 -8 17.5
06:50 1024 30.24 853 25.19 -2.6 27.3 67 -7.9 17.7
06:55 1024 30.24 853 25.19 -3 26.6 69 -7.9 17.8
07:00 1024 30.24 853 25.19 -3.4 25.9 71 -8 17.7
07:05 1024 30.24 853 25.19 -2.9 26.7 68 -7.9 17.7
07:10 1024 30.24 853 25.19 -2.1 28.1 67 -7.4 18.6
07:15 1024 30.24 853 25.19 -2.3 27.9 67 -7.6 18.4
07:20 1024 30.24 853 25.19 -2 28.4 67 -7.4 18.7
07:25 1024 30.24 853 25.19 -1.9 28.5 67 -7.3 18.9
07:30 1024 30.24 853 25.19 -2.4 27.8 68 -7.5 18.6
07:35 1024 30.24 853 25.19 -2.6 27.3 69 -7.6 18.4
07:40 1024 30.24 853 25.19 -2.3 27.8 68 -7.5 18.5
07:45 1024 30.24 853 25.19 -2.1 28.2 66 -7.6 18.4
07:50 1024 30.24 853 25.19 -2 28.4 66 -7.5 18.4
07:55 1024 30.24 853 25.19 -1.9 28.7 65 -7.6 18.3
08:00 1024 30.24 853 25.19 -1.7 28.9 64 -7.7 18.2
08:05 1024 30.24 853 25.19 -1.8 28.8 64 -7.7 18.2
08:10 1024 30.24 853 25.19 -1.5 29.3 63 -7.7 18.2
08:15 1024 30.24 853 25.19 -1.5 29.3 64 -7.4 18.7
08:20 1024 30.24 853 25.19 -1.4 29.5 64 -7.4 18.6
08:25 1024 30.24 853 25.19 -1.6 29.2 65 -7.4 18.7
08:30 1024 30.24 853 25.19 -1.6 29.1 65 -7.4 18.8
08:35 1024 30.24 853 25.19 -1.5 29.4 64 -7.3 18.8
08:40 1024 30.24 853 25.19 -1 30.2 63 -7.2 19
08:45 1024 30.24 853 25.19 -0.7 30.8 61 -7.3 18.9
08:50 1024 30.24 853 25.19 -0.1 31.8 60 -7.1 19.3
08:55 1024 30.24 853 25.19 0.2 32.3 58 -7.1 19.3
09:00 1024 30.24 853 25.19 0.6 33.1 58 -6.8 19.7
09:05 1024 30.24 853 25.19 1.1 34.1 55 -6.9 19.6
09:10 1024 30.24 853 25.19 1.7 35.1 53 -6.9 19.6
09:15 1024 30.24 853 25.19 2.2 36 52 -6.6 20.1
09:20 1024 30.24 853 25.19 2.1 35.8 53 -6.5 20.3
09:25 1024 30.24 853 25.19 1.9 35.5 53 -6.7 19.9
09:30 1024 30.24 853 25.19 2.2 35.9 53 -6.5 20.4
09:35 1024 30.24 853 25.19 2.7 36.9 50 -6.6 20.1
09:40 1024 30.24 853 25.19 3.1 37.6 48 -6.8 19.8
09:45 1024 30.24 853 25.19 3.8 38.9 47 -6.4 20.5
09:50 1024 30.24 853 25.19 4.6 40.3 44 -6.6 20.1
09:55 1024 30.24 853 25.19 4.9 40.8 43 -6.5 20.3
10:00 1024 30.24 853 25.19 5.1 41.2 45 -5.9 21.4
10:05 1024 30.24 853 25.19 5.6 42 43 -5.9 21.3
10:10 1024 30.24 853 25.19 6 42.9 44 -5.3 22.5
10:15 1024 30.24 853 25.19 6 42.8 43 -5.7 21.7
10:20 1024 30.24 853 25.19 6.2 43.1 42 -5.7 21.7
10:25 1024 30.24 853 25.19 5.9 42.7 45 -5.2 22.6
10:30 1024 30.24 853 25.19 5.9 42.6 42 -5.9 21.4
10:35 1024 30.24 853 25.19 6 42.8 43 -5.5 22.1
10:40 1024 30.24 853 25.19 5.9 42.6 44 -5.4 22.3
10:45 1024 30.24 853 25.19 5.8 42.4 44 -5.5 22.1
10:50 1024 30.24 853 25.19 4.8 40.7 49 -4.9 23.2
10:55 1024 30.24 853 25.19 4.4 39.9 49 -5.3 22.5
11:00 1024 30.24 853 25.19 4.6 40.4 48 -5.3 22.4
11:05 1024 30.24 853 25.19 4.6 40.2 50 -5.1 22.9
11:10 1023 30.21 853 25.19 4.8 40.7 49 -4.9 23.3
11:15 1023 30.21 853 25.19 4.9 40.8 49 -5.1 22.9
11:20 1023 30.21 853 25.19 5.2 41.3 47 -5.2 22.7
11:25 1023 30.21 852 25.16 5.8 42.5 45 -5.1 22.8
11:30 1023 30.21 852 25.16 6.9 44.4 43 -4.7 23.5
11:35 1023 30.21 852 25.16 6.6 43.9 46 -4.1 24.7
11:40 1023 30.21 852 25.16 6.3 43.4 45 -4.6 23.7
11:45 1023 30.21 852 25.16 6.6 43.9 45 -4.3 24.2
11:50 1023 30.21 852 25.16 6.7 44.1 44 -4.6 23.8
11:55 1023 30.21 852 25.16 6.9 44.4 45 -4.3 24.3
12:00 1023 30.21 852 25.16 6.5 43.6 46 -4.2 24.4
12:05 1023 30.21 852 25.16 6.5 43.6 47 -3.9 25
12:10 1023 30.21 852 25.16 5.9 42.6 45 -5 22.9
12:15 1023 30.21 852 25.16 6.3 43.3 45 -4.9 23.2
12:20 1023 30.21 852 25.16 7.1 44.8 42 -4.8 23.3
12:25 1023 30.21 852 25.16 7.4 45.2 42 -4.6 23.8
12:30 1023 30.21 852 25.16 7.6 45.7 41 -4.6 23.7
12:35 1023 30.21 852 25.16 7.9 46.1 41 -4.4 24.1
12:40 1023 30.21 852 25.16 8.5 47.2 40 -4.5 23.9
12:45 1023 30.21 852 25.16 8.5 47.2 40 -4.3 24.3
12:50 1023 30.21 852 25.16 7.3 45.2 41 -5.2 22.6
12:55 1023 30.21 852 25.16 7.2 45 40 -5.6 21.9
13:00 1023 30.21 852 25.16 7.1 44.7 42 -5 23.1
13:05 1023 30.21 852 25.16 7.9 46.2 38 -5.6 22
13:10 1022 30.18 852 25.16 8.7 47.6 37 -5 23
13:15 1022 30.18 852 25.16 8.1 46.5 38 -5.5 22.1
13:20 1022 30.18 852 25.16 7 44.7 41 -5.5 22.2
13:25 1022 30.18 852 25.16 7.6 45.8 39 -5.4 22.2
13:30 1022 30.18 851 25.13 8.7 47.7 38 -4.9 23.1
13:35 1022 30.18 852 25.16 8.7 47.6 38 -5 23.1
13:40 1022 30.18 852 25.16 9.1 48.3 36 -5.2 22.6
13:45 1022 30.18 852 25.16 9.2 48.6 36 -4.9 23.1
13:50 1022 30.18 852 25.16 9 48.2 36 -5.4 22.3
13:55 1022 30.18 851 25.13 9.2 48.6 37 -4.6 23.7
14:00 1022 30.18 851 25.13 9.2 48.6 37 -4.6 23.6
14:05 1022 30.18 851 25.13 8.7 47.7 38 -4.6 23.6
14:10 1022 30.18 851 25.13 8.7 47.6 39 -4.4 24.1
14:15 1022 30.18 851 25.13 9.1 48.3 36 -5.4 22.4
14:20 1022 30.18 851 25.13 8.9 48 38 -4.8 23.3
14:25 1022 30.18 851 25.13 8.1 46.7 39 -5 23.1
14:30 1022 30.18 851 25.13 7.7 45.9 40 -4.9 23.2
14:35 1022 30.18 851 25.13 8 46.5 37 -5.8 21.5
14:40 1022 30.18 851 25.13 8.3 46.9 39 -5 23.1
14:45 1022 30.18 851 25.13 8.3 46.9 37 -5.7 21.7
14:50 1022 30.18 851 25.13 7.7 45.9 35 -6.8 19.8
14:55 1022 30.18 851 25.13 7.1 44.8 40 -5.6 21.9
15:00 1022 30.18 851 25.13 6.7 44 41 -5.6 22
15:05 1022 30.18 851 25.13 6.3 43.3 42 -5.6 21.9
15:10 1022 30.18 851 25.13 6.4 43.5 43 -5.2 22.6
15:15 1022 30.18 851 25.13 6.9 44.5 42 -5.1 22.9
15:20 1022 30.18 851 25.13 7.7 45.9 39 -5.3 22.5
15:25 1022 30.18 851 25.13 7.8 46 40 -4.9 23.1
15:30 1022 30.18 851 25.13 8 46.3 39 -5.2 22.6
15:35 1022 30.18 851 25.13 7.3 45.1 41 -5.1 22.9
15:40 1022 30.18 851 25.13 6.9 44.4 42 -5.1 22.8
15:45 1022 30.18 851 25.13 7.3 45.1 41 -5.2 22.6
15:50 1022 30.18 851 25.13 7.8 46.1 39 -5.4 22.3
15:55 1022 30.18 851 25.13 8 46.5 40 -4.7 23.6
16:00 1022 30.18 851 25.13 8.1 46.5 41 -4.5 23.9
16:05 1022 30.18 851 25.13 7.5 45.5 39 -5.4 22.2
16:10 1022 30.18 851 25.13 7.5 45.6 42 -4.6 23.7
16:15 1022 30.18 851 25.13 7.7 45.9 40 -4.9 23.2
16:20 1022 30.18 851 25.13 7.5 45.4 42 -4.5 23.8
16:25 1022 30.18 851 25.13 7.3 45.1 43 -4.5 23.9
16:30 1021 30.15 851 25.13 7.6 45.6 40 -5.3 22.5
16:35 1021 30.15 851 25.13 7.7 45.8 42 -4.4 24.1
16:40 1021 30.15 851 25.13 7.9 46.1 39 -5.1 22.8
16:45 1021 30.15 851 25.13 7.9 46.2 39 -5.1 22.8
16:50 1021 30.15 851 25.13 7.9 46.1 38 -5.6 21.9
16:55 1021 30.15 851 25.13 7.9 46.2 39 -5.3 22.5
17:00 1021 30.15 851 25.13 8 46.4 38 -5.3 22.5
17:05 1021 30.15 851 25.13 7.9 46.3 39 -5 22.9
17:10 1021 30.15 851 25.13 8.1 46.5 40 -4.6 23.8
17:15 1021 30.15 851 25.13 8.2 46.8 39 -4.8 23.4
17:20 1021 30.15 851 25.13 8.3 47 40 -4.6 23.8
17:25 1021 30.15 851 25.13 8.2 46.8 43 -3.7 25.4
17:30 1021 30.15 851 25.13 7.9 46.3 42 -4.3 24.2
17:35 1021 30.15 851 25.13 7.7 45.8 43 -4.2 24.4
17:40 1021 30.15 851 25.13 7.5 45.6 43 -4.3 24.2
17:45 1022 30.18 851 25.13 7.5 45.5 45 -3.8 25.2
17:50 1022 30.18 851 25.13 7.7 45.8 44 -3.9 24.9
17:55 1022 30.18 851 25.13 7.4 45.2 44 -4.2 24.4
18:00 1021 30.15 851 25.13 6.9 44.4 45 -4.3 24.2
18:05 1021 30.15 851 25.13 6.8 44.3 45 -4.1 24.6
18:10 1021 30.15 851 25.13 6.7 44.1 47 -3.8 25.1
18:15 1021 30.15 851 25.13 6.4 43.6 49 -3.4 25.8
18:20 1021 30.15 851 25.13 6.5 43.7 49 -3.4 25.9
18:25 1021 30.15 851 25.13 6.5 43.7 51 -3 26.6
18:30 1021 30.15 851 25.13 6.3 43.4 50 -3.2 26.2
18:35 1021 30.15 851 25.13 6.1 42.9 53 -2.7 27.1
18:40 1021 30.15 851 25.13 5.6 42 53 -3.3 26.1
18:45 1021 30.15 851 25.13 5.5 41.8 52 -3.5 25.7
18:50 1021 30.15 851 25.13 5.6 42.1 51 -3.6 25.5
18:55 1021 30.15 851 25.13 5.7 42.3 52 -3.2 26.2
19:00 1021 30.15 851 25.13 6.1 43 48 -3.9 24.9
19:05 1021 30.15 851 25.13 6.3 43.4 52 -2.8 27
19:10 1021 30.15 851 25.13 5.8 42.5 55 -2.5 27.5
19:15 1021 30.15 850 25.1 5.5 41.8 57 -2.5 27.6
19:20 1021 30.15 851 25.13 5.3 41.5 55 -2.9 26.8
19:25 1021 30.15 851 25.13 5.4 41.7 56 -2.8 27
19:30 1021 30.15 851 25.13 5.5 41.9 55 -2.8 26.9
19:35 1021 30.15 851 25.13 5.4 41.6 56 -2.7 27.2
19:40 1021 30.15 851 25.13 5.1 41.2 55 -3.1 26.5
19:45 1021 30.15 851 25.13 5.4 41.8 55 -3 26.6
19:50 1021 30.15 851 25.13 5.5 42 54 -3 26.6
19:55 1021 30.15 851 25.13 5.5 41.9 55 -2.8 26.9
20:00 1021 30.15 851 25.13 5.4 41.7 55 -2.8 26.9
20:05 1021 30.15 851 25.13 5.5 41.8 54 -3.1 26.4
20:10 1021 30.15 851 25.13 5.6 42.1 54 -2.9 26.8
20:15 1021 30.15 851 25.13 5.6 42.1 54 -2.9 26.8
20:20 1021 30.15 851 25.13 5.5 41.9 55 -2.8 27
20:25 1022 30.18 851 25.13 5.4 41.7 56 -2.7 27.2
20:30 1022 30.18 851 25.13 5.5 41.8 56 -2.6 27.3
20:35 1022 30.18 851 25.13 5.8 42.4 55 -2.4 27.6
20:40 1022 30.18 851 25.13 5.9 42.6 56 -2.1 28.2
20:45 1022 30.18 851 25.13 5.7 42.3 60 -1.5 29.3
20:50 1022 30.18 851 25.13 5.3 41.5 60 -1.8 28.7
20:55 1022 30.18 851 25.13 5.2 41.4 57 -2.6 27.3
21:00 1022 30.18 851 25.13 5.5 41.9 56 -2.6 27.4
21:05 1022 30.18 851 25.13 5.6 42.1 57 -2.3 27.9
21:10 1022 30.18 851 25.13 5.7 42.3 56 -2.2 28
21:15 1022 30.18 851 25.13 5.5 42 59 -1.8 28.8
21:20 1022 30.18 851 25.13 5.2 41.4 60 -1.8 28.7
21:25 1022 30.18 851 25.13 4.8 40.7 63 -1.6 29.2
21:30 1022 30.18 851 25.13 4.8 40.6 64 -1.5 29.2
21:35 1022 30.18 851 25.13 4.5 40.1 65 -1.6 29.1
21:40 1022 30.18 851 25.13 4.2 39.6 66 -1.5 29.3
21:45 1022 30.18 851 25.13 4.1 39.3 66 -1.8 28.8
21:50 1022 30.18 851 25.13 3.8 38.8 67 -1.8 28.8
21:55 1022 30.18 851 25.13 3.8 38.8 67 -1.7 28.9
22:00 1022 30.18 851 25.13 3.7 38.6 67 -1.9 28.5
22:05 1022 30.18 851 25.13 3.6 38.5 66 -2.2 28
22:10 1022 30.18 851 25.13 3.5 38.3 65 -2.4 27.7
22:15 1022 30.18 851 25.13 3.4 38.1 66 -2.3 27.9
22:20 1022 30.18 851 25.13 3.6 38.5 64 -2.5 27.5
22:25 1022 30.18 851 25.13 3.9 39 63 -2.5 27.5
22:30 1022 30.18 851 25.13 4.1 39.4 63 -2.2 28
22:35 1022 30.18 851 25.13 4 39.3 65 -1.9 28.5
22:40 1022 30.18 851 25.13 3.8 38.8 67 -1.8 28.7
22:45 1022 30.18 851 25.13 3.5 38.3 68 -1.9 28.6
22:50 1022 30.18 851 25.13 3.5 38.2 68 -1.9 28.6
22:55 1022 30.18 851 25.13 3.4 38.1 69 -1.8 28.8
23:00 1022 30.18 851 25.13 3.2 37.8 69 -1.8 28.7
23:05 1022 30.18 851 25.13 3.3 37.9 69 -1.9 28.6
23:10 1022 30.18 851 25.13 3.2 37.8 70 -1.8 28.8
23:15 1022 30.18 851 25.13 3.3 37.9 67 -2.2 28.1
23:20 1022 30.18 851 25.13 3.6 38.4 66 -2.2 28.1
23:25 1022 30.18 851 25.13 3.9 38.9 64 -2.4 27.7
23:30 1022 30.18 851 25.13 4.2 39.6 64 -2.1 28.3
23:35 1022 30.18 852 25.16 4.1 39.4 63 -2.2 28.1
23:40 1022 30.18 852 25.16 4.3 39.7 63 -2.1 28.3
23:45 1022 30.18 852 25.16 4.3 39.8 64 -1.8 28.8
23:50 1022 30.18 852 25.16 4.2 39.5 66 -1.6 29.2
23:55 1022 30.18 852 25.16 4.1 39.4 68 -1.3 29.6
24:00 1022 30.18 852 25.16 4 39.2 67 -1.6 29.2